MQY - Smyrna

Pirep is a free, collaborative database of all public and private airports located within the United States. All pilots are welcome to contribute, edit, and improve any airport they have local knowledge about, no registration required.
Uploaded photos will be licensed under a CC BY-SA 4.0 license. Please only upload photos you have the rights to use.
Tags
Public
Car Rental
METAR / TAF
Flying Clubs
Edit Tags
Food
Camping
Lodging
Bicycles
Swimming
Golfing
Fishing
Hot Springs
Museum
Airpark
Upcoming Events
No upcoming events. Is anything happening here soon?
*
*
*

Where exactly on/near the airport is this event taking place?

Is there a webpage with more information for this event?

Who should be contacted for more information?

What is this event all about?

Repeat every
Description
Last updated: 2023-06-12 00:18:25 CDT
Transient Parking
Fuel Location
Landing & Tie-down Fees
Crew Car Availability
Flying Clubs
Last updated: 2024-02-27 00:21:42 CST
WiFi Access
Airport Statistics
Location: Smyrna, TN
Elevation: 543ft
Sectional: Atlanta
Activation date: Oct 1942
Fuel: 100LL, A (prices)
Runway 14/32: 8,038ft
Runway 01/19: 5,546ft
Runway H1: 40ft
Access: Open to the public
Current Weather — VFR
  • Weather data is strictly informational and not for flight planning purposes.
  • METAR
    2024-05-26 04:56:00 CDT
    Ceiling Wind Temperature Dewpoint Weather Visbility
    5,500ft 120° @ 3kt 69°F 68°F N/A 10SM
    Clouds: Broken @ 5,500ft
    Raw: KMQY 260956Z AUTO 12003KT 10SM BKN055 21/20 A2984 RMK AO2 SLP107 T02060200
  • TAF
    2024-05-26 01:00:00 CDT – 2024-05-26 12:00:00 CDT
    Ceiling Wind Weather Visbility
    Sky clear Calm N/A 6SM
    Clouds: Scattered @ 25,000ft
    Raw: KMQY 260528Z 2606/2706 00000KT P6SM SCT250 TEMPO 2612/2615 P6SM -TSRA BKN050CB FM261700 20012G20KT P6SM BKN050 FM270500 19011G20KT P6SM -SHRA OVC100 PROB30 2705/2706 P6SM -TSRA BKN050CB
  • TAF
    2024-05-26 07:00:00 CDT – 2024-05-26 10:00:00 CDT
    Ceiling Wind Weather Visbility
    5,000ft ° @ kt Light thunderstorm rain 6SM
    Clouds: Broken @ 5,000ft
    Raw: KMQY 260528Z 2606/2706 00000KT P6SM SCT250 TEMPO 2612/2615 P6SM -TSRA BKN050CB FM261700 20012G20KT P6SM BKN050 FM270500 19011G20KT P6SM -SHRA OVC100 PROB30 2705/2706 P6SM -TSRA BKN050CB
  • TAF
    2024-05-26 12:00:00 CDT – 2024-05-27 00:00:00 CDT
    Ceiling Wind Weather Visbility
    5,000ft 200° @ 12kt, gusts 20kt N/A 6SM
    Clouds: Broken @ 5,000ft
    Raw: KMQY 260528Z 2606/2706 00000KT P6SM SCT250 TEMPO 2612/2615 P6SM -TSRA BKN050CB FM261700 20012G20KT P6SM BKN050 FM270500 19011G20KT P6SM -SHRA OVC100 PROB30 2705/2706 P6SM -TSRA BKN050CB
  • TAF
    2024-05-27 00:00:00 CDT – 2024-05-27 01:00:00 CDT
    Ceiling Wind Weather Visbility
    10,000ft 190° @ 11kt, gusts 20kt Light rain showers 6SM
    Clouds: Overcast @ 10,000ft
    Raw: KMQY 260528Z 2606/2706 00000KT P6SM SCT250 TEMPO 2612/2615 P6SM -TSRA BKN050CB FM261700 20012G20KT P6SM BKN050 FM270500 19011G20KT P6SM -SHRA OVC100 PROB30 2705/2706 P6SM -TSRA BKN050CB
  • TAF
    2024-05-27 00:00:00 CDT – 2024-05-27 01:00:00 CDT
    Ceiling Wind Weather Visbility
    5,000ft ° @ kt Light thunderstorm rain 6SM
    Clouds: Broken @ 5,000ft
    Raw: KMQY 260528Z 2606/2706 00000KT P6SM SCT250 TEMPO 2612/2615 P6SM -TSRA BKN050CB FM261700 20012G20KT P6SM BKN050 FM270500 19011G20KT P6SM -SHRA OVC100 PROB30 2705/2706 P6SM -TSRA BKN050CB
Click/tap to add an annotation marker to the map
Airport Webcams
No webcams added yet.
Direct links to live image URLs will be displayed inline on this page. URLs to separate webpages will be linked to.
URL:
Direct links to live image URLs will be displayed inline on this page. URLs to separate webpages will be linked to.
URL:
Remarks
  • Nashville intl arpt tfc transits smyrna arpt tfc area at 2500 ft msl & abv.
  • Ang base ops 0630-1600 mon-fri. ppr dsn 683-3611.
  • 24 hr ppr for acft over 30 pax - amgr.
  • Twy j south of twy a limited to 65000 lbs.
  • Twy k limited to 65000 lbs.
Comments
Leave a comment What was your experience like at this airport?